createdAt,value
2022-09-23T00:01:15.912Z,97.26
2022-09-23T00:03:45.660Z,97.69
2022-09-23T00:06:19.977Z,97.70
2022-09-23T00:08:49.642Z,97.76
2022-09-23T00:11:25.846Z,98.08
2022-09-23T00:13:59.282Z,97.43
2022-09-23T00:16:31.169Z,97.65
2022-09-23T00:18:58.471Z,97.84
2022-09-23T00:21:25.412Z,97.69
2022-09-23T00:23:52.785Z,97.91
2022-09-23T00:26:22.191Z,98.33
2022-09-23T00:28:50.472Z,97.88
2022-09-23T00:31:22.605Z,98.59
2022-09-23T00:33:56.740Z,98.34
2022-09-23T00:36:24.837Z,98.11
2022-09-23T00:38:52.206Z,98.39
2022-09-23T00:41:19.465Z,97.15
2022-09-23T00:43:57.107Z,97.45
2022-09-23T00:46:36.527Z,97.87
2022-09-23T00:49:22.748Z,98.23
2022-09-23T00:51:56.788Z,99.57
2022-09-23T00:54:27.389Z,99.35
2022-09-23T00:56:57.023Z,99.46
2022-09-23T00:59:26.175Z,99.10
2022-09-23T01:01:55.611Z,99.53
2022-09-23T01:04:25.257Z,99.63
2022-09-23T01:06:52.227Z,100.00
2022-09-23T01:09:20.591Z,100.00
2022-09-23T01:12:06.014Z,99.48
2022-09-23T01:14:48.739Z,100.00
2022-09-23T01:17:30.447Z,99.95
2022-09-23T01:20:42.012Z,99.94
2022-09-23T01:23:42.674Z,100.00
2022-09-23T01:26:51.844Z,99.81
2022-09-23T01:29:37.545Z,99.81
2022-09-23T01:32:37.719Z,100.00
2022-09-23T01:35:23.769Z,100.00
2022-09-23T01:38:29.031Z,99.62
2022-09-23T01:41:25.807Z,99.36
2022-09-23T01:44:10.739Z,99.53
2022-09-23T01:47:18.850Z,98.77
2022-09-23T01:50:00.416Z,98.48
2022-09-23T01:52:44.560Z,99.07
2022-09-23T01:55:23.947Z,99.21
2022-09-23T01:58:09.901Z,99.24
2022-09-23T02:00:44.415Z,99.27
2022-09-23T02:03:27.806Z,99.20
2022-09-23T02:06:02.135Z,99.59
2022-09-23T02:08:42.517Z,99.32
2022-09-23T02:11:14.139Z,99.42
2022-09-23T02:14:14.536Z,98.72
2022-09-23T02:16:58.395Z,98.66
2022-09-23T02:19:51.543Z,98.99
2022-09-23T02:23:04.355Z,98.49
2022-09-23T02:25:55.344Z,97.39
2022-09-23T02:28:51.888Z,97.68
2022-09-23T02:31:41.836Z,97.32
2022-09-23T02:34:30.818Z,97.88
2022-09-23T02:37:44.735Z,98.15
2022-09-23T02:40:38.070Z,98.01
2022-09-23T02:43:35.688Z,98.88
2022-09-23T02:46:04.957Z,98.62
2022-09-23T02:48:56.745Z,99.50
2022-09-23T02:51:28.903Z,99.57
2022-09-23T02:53:57.802Z,99.62
2022-09-23T02:56:25.087Z,99.99
2022-09-23T02:58:54.404Z,100.00
2022-09-23T03:01:53.022Z,100.00
2022-09-23T03:04:53.917Z,99.75
2022-09-23T03:07:51.291Z,99.88
2022-09-23T03:10:33.805Z,100.00
2022-09-23T03:13:28.627Z,100.00
2022-09-23T03:16:32.633Z,100.00
2022-09-23T03:19:19.742Z,100.00
2022-09-23T03:22:14.073Z,100.00
2022-09-23T03:24:45.142Z,100.00
2022-09-23T03:27:22.005Z,100.00
2022-09-23T03:29:52.065Z,100.00
2022-09-23T03:32:23.611Z,100.00
2022-09-23T03:34:54.829Z,100.00
2022-09-23T03:37:44.770Z,100.00
2022-09-23T03:40:24.141Z,99.89
2022-09-23T03:42:52.220Z,99.80
2022-09-23T03:45:26.691Z,100.00
2022-09-23T03:47:53.713Z,100.00
2022-09-23T03:50:21.389Z,100.00
2022-09-23T03:52:49.758Z,100.00
2022-09-23T03:55:18.230Z,100.00
2022-09-23T03:57:45.539Z,100.00
2022-09-23T04:00:15.028Z,100.00
2022-09-23T04:02:42.624Z,100.00
2022-09-23T04:05:11.786Z,100.00
2022-09-23T04:07:38.908Z,100.00
2022-09-23T04:10:07.441Z,99.87
2022-09-23T04:12:34.390Z,99.83
2022-09-23T04:15:01.459Z,99.83
2022-09-23T04:17:28.541Z,99.38
2022-09-23T04:19:55.580Z,99.15
2022-09-23T04:22:22.553Z,100.00
2022-09-23T04:24:49.483Z,100.00
2022-09-23T04:27:16.730Z,99.45
2022-09-23T04:29:43.676Z,98.71
2022-09-23T04:32:10.792Z,99.09
2022-09-23T04:34:37.786Z,98.45
2022-09-23T04:37:04.866Z,97.66
2022-09-23T04:39:31.898Z,97.12
2022-09-23T04:41:59.783Z,96.83
2022-09-23T04:44:28.344Z,98.00
2022-09-23T04:46:55.362Z,96.89
2022-09-23T04:49:23.588Z,95.87
2022-09-23T04:51:50.493Z,96.33
2022-09-23T04:54:17.460Z,93.48
2022-09-23T04:56:44.411Z,87.28
2022-09-23T04:59:11.472Z,79.24
2022-09-23T05:01:38.729Z,71.54
2022-09-23T05:04:11.052Z,66.65
2022-09-23T05:06:38.359Z,62.27
2022-09-23T05:09:08.896Z,60.44
2022-09-23T05:11:36.397Z,57.00
2022-09-23T05:14:03.413Z,54.70
2022-09-23T05:16:30.410Z,54.27
2022-09-23T05:18:58.143Z,56.04
2022-09-23T05:21:31.851Z,59.80
2022-09-23T05:24:00.782Z,60.16
2022-09-23T05:26:31.082Z,55.28
2022-09-23T05:28:59.142Z,51.60
2022-09-23T05:31:29.077Z,48.78
2022-09-23T05:33:59.310Z,45.07
2022-09-23T05:36:27.556Z,43.00
2022-09-23T05:38:56.566Z,50.82
2022-09-23T05:41:25.383Z,56.42
2022-09-23T05:43:54.574Z,57.09
2022-09-23T05:46:25.444Z,59.96
2022-09-23T05:48:52.567Z,62.87
2022-09-23T05:51:30.131Z,65.47
2022-09-23T05:53:58.439Z,67.68
2022-09-23T05:56:27.758Z,69.05
2022-09-23T05:58:57.946Z,68.55
2022-09-23T06:01:28.803Z,65.76
2022-09-23T06:03:57.654Z,67.88
2022-09-23T06:06:36.099Z,67.20
2022-09-23T06:09:03.633Z,68.24
2022-09-23T06:11:32.487Z,68.35
2022-09-23T06:14:03.317Z,55.77
2022-09-23T06:16:34.047Z,49.98
2022-09-23T06:19:06.316Z,43.99
2022-09-23T06:21:36.935Z,39.82
2022-09-23T06:24:05.104Z,37.22
2022-09-23T06:26:35.370Z,35.33
2022-09-23T06:29:03.381Z,33.85
2022-09-23T06:31:30.608Z,32.32
2022-09-23T06:34:07.508Z,30.16
2022-09-23T06:36:43.410Z,31.46
2022-09-23T06:39:11.406Z,30.89
2022-09-23T06:41:39.211Z,30.65
2022-09-23T06:44:06.234Z,30.02
2022-09-23T06:46:33.578Z,29.21
2022-09-23T06:49:02.119Z,28.89
2022-09-23T06:51:29.120Z,27.96
2022-09-23T06:53:56.047Z,26.76
2022-09-23T06:56:23.792Z,27.13
2022-09-23T06:58:52.786Z,27.07
2022-09-23T07:01:20.072Z,26.87
2022-09-23T07:03:48.493Z,26.94
2022-09-23T07:06:17.242Z,27.28
2022-09-23T07:08:51.256Z,27.48
2022-09-23T07:11:22.451Z,27.92
2022-09-23T07:13:49.761Z,27.51
2022-09-23T07:16:16.813Z,26.69
2022-09-23T07:18:45.075Z,27.56
2022-09-23T07:21:16.017Z,26.63
2022-09-23T07:23:48.884Z,26.32
2022-09-23T07:26:17.184Z,26.17
2022-09-23T07:28:44.305Z,25.44
2022-09-23T07:31:17.746Z,25.93
2022-09-23T07:33:49.178Z,25.45
2022-09-23T07:36:18.956Z,24.85
2022-09-23T07:38:47.478Z,26.92
2022-09-23T07:41:18.471Z,27.12
2022-09-23T07:43:46.991Z,26.39
2022-09-23T07:46:17.638Z,26.83
2022-09-23T07:48:46.032Z,27.01
2022-09-23T07:51:34.740Z,27.76
2022-09-23T07:54:05.399Z,27.69
2022-09-23T07:56:32.392Z,27.95
2022-09-23T07:59:03.870Z,28.28
2022-09-23T08:01:38.160Z,28.76
2022-09-23T08:04:30.681Z,29.19
2022-09-23T08:07:05.646Z,30.22
2022-09-23T08:09:41.689Z,30.70
2022-09-23T08:12:16.351Z,30.76
2022-09-23T08:14:43.934Z,30.94
2022-09-23T08:17:13.124Z,31.18
2022-09-23T08:19:40.068Z,30.54
2022-09-23T08:22:07.017Z,30.52
2022-09-23T08:24:33.962Z,30.33
2022-09-23T08:27:01.110Z,30.77
2022-09-23T08:29:28.067Z,30.50
2022-09-23T08:31:55.568Z,30.80
2022-09-23T08:34:23.745Z,31.38
2022-09-23T08:36:52.431Z,31.04
2022-09-23T08:39:20.952Z,31.77
2022-09-23T08:41:59.052Z,31.58
2022-09-23T08:44:45.333Z,32.37
2022-09-23T08:47:20.951Z,32.60
2022-09-23T08:50:08.758Z,32.54
2022-09-23T08:52:55.030Z,31.89
2022-09-23T08:55:34.492Z,31.02
2022-09-23T08:58:51.245Z,30.92
2022-09-23T09:01:52.060Z,30.66
2022-09-23T09:04:43.141Z,32.09
2022-09-23T09:10:21.331Z,31.97
2022-09-23T09:13:00.322Z,33.15
2022-09-23T09:15:28.571Z,33.28
2022-09-23T09:18:05.311Z,32.52
2022-09-23T09:20:57.797Z,31.92
2022-09-23T09:23:52.034Z,30.73
2022-09-23T09:26:28.814Z,31.21
2022-09-23T09:29:23.820Z,32.29
2022-09-23T09:31:57.803Z,31.92
2022-09-23T09:34:38.255Z,30.19
2022-09-23T09:37:19.054Z,30.34
2022-09-23T09:39:46.115Z,30.89
2022-09-23T09:42:26.101Z,31.76
2022-09-23T09:45:02.212Z,31.55
2022-09-23T09:47:38.936Z,32.42
2022-09-23T09:50:10.624Z,32.19
2022-09-23T09:52:43.737Z,31.34
2022-09-23T09:55:13.548Z,30.81
2022-09-23T09:57:53.692Z,30.45
2022-09-23T10:00:26.766Z,30.49
2022-09-23T10:03:01.805Z,30.29
2022-09-23T10:05:34.918Z,30.71
2022-09-23T10:08:33.499Z,30.96
2022-09-23T10:11:07.968Z,31.13
2022-09-23T10:13:36.260Z,31.24
2022-09-23T10:16:04.277Z,32.08
2022-09-23T10:18:39.356Z,32.33
2022-09-23T10:21:14.458Z,31.04
2022-09-23T10:23:48.813Z,30.80
2022-09-23T10:26:19.075Z,31.75
2022-09-23T10:28:52.347Z,31.71
2022-09-23T10:31:34.571Z,32.20
2022-09-23T10:34:20.773Z,31.19
2022-09-23T10:37:13.767Z,30.64
2022-09-23T10:39:59.516Z,30.21
2022-09-23T10:43:20.168Z,29.81
2022-09-23T10:46:08.578Z,28.76
2022-09-23T10:48:59.845Z,29.58
2022-09-23T10:51:45.009Z,31.83
2022-09-23T10:54:46.257Z,30.76
2022-09-23T10:57:46.548Z,30.60
2022-09-23T11:00:46.960Z,30.63
2022-09-23T11:03:19.640Z,29.36
2022-09-23T11:05:48.722Z,29.64
2022-09-23T11:08:33.928Z,30.09
2022-09-23T11:11:55.603Z,29.57
2022-09-23T11:14:51.551Z,30.23
2022-09-23T11:18:07.155Z,28.62
2022-09-23T11:20:39.180Z,28.97
2022-09-23T11:23:43.335Z,29.22
2022-09-23T11:26:23.589Z,29.75
2022-09-23T11:29:22.552Z,29.03
2022-09-23T11:32:34.442Z,29.90
2022-09-23T11:35:48.562Z,30.40
2022-09-23T11:38:26.255Z,31.16
2022-09-23T11:41:01.678Z,30.20
2022-09-23T11:43:35.607Z,30.00
2022-09-23T11:46:17.777Z,30.53
2022-09-23T11:48:56.702Z,30.02
2022-09-23T11:51:39.029Z,31.45
2022-09-23T11:54:23.129Z,30.75
2022-09-23T11:57:04.824Z,31.67
2022-09-23T11:59:57.453Z,33.64
2022-09-23T12:03:00.082Z,33.67
2022-09-23T12:05:45.369Z,34.08
2022-09-23T12:08:25.549Z,34.65
2022-09-23T12:11:06.643Z,34.48
2022-09-23T12:14:11.607Z,33.87
2022-09-23T12:16:55.176Z,33.96
2022-09-23T12:20:16.109Z,33.97
2022-09-23T12:23:03.398Z,33.28
2022-09-23T12:25:57.935Z,34.23
2022-09-23T12:28:29.255Z,34.31
2022-09-23T12:31:00.516Z,34.38
2022-09-23T12:33:31.216Z,34.30
2022-09-23T12:36:08.029Z,34.86
2022-09-23T12:38:49.969Z,33.14
2022-09-23T12:41:36.576Z,33.87
2022-09-23T12:44:15.068Z,34.80
2022-09-23T12:46:44.736Z,35.02
2022-09-23T12:49:37.719Z,35.15
2022-09-23T12:52:16.765Z,35.28
2022-09-23T12:54:51.658Z,35.07
2022-09-23T12:57:33.606Z,34.91
2022-09-23T13:00:29.863Z,35.73
2022-09-23T13:03:19.141Z,37.09
2022-09-23T13:06:11.681Z,37.77
2022-09-23T13:08:42.492Z,38.29
2022-09-23T13:11:35.193Z,38.89
2022-09-23T13:14:05.291Z,38.51
2022-09-23T13:16:38.185Z,37.97
2022-09-23T13:19:26.626Z,38.66
2022-09-23T13:22:11.128Z,38.46
2022-09-23T13:25:00.282Z,39.13
2022-09-23T13:27:35.573Z,39.18
2022-09-23T13:30:21.234Z,39.82
2022-09-23T13:33:00.805Z,39.86
2022-09-23T13:35:52.911Z,40.56
2022-09-23T13:38:29.780Z,40.36
2022-09-23T13:41:23.118Z,40.36
2022-09-23T13:43:55.976Z,40.36
2022-09-23T13:46:31.407Z,39.90
2022-09-23T13:48:58.693Z,39.64
2022-09-23T13:51:36.380Z,40.14
2022-09-23T13:54:05.206Z,40.58
2022-09-23T13:56:35.379Z,41.03
2022-09-23T13:59:28.360Z,41.29
2022-09-23T14:02:16.971Z,40.89
2022-09-23T14:04:44.591Z,41.42
2022-09-23T14:07:15.576Z,41.17
2022-09-23T14:09:48.524Z,41.48
2022-09-23T14:12:22.020Z,41.66
2022-09-23T14:14:51.844Z,41.56
2022-09-23T14:17:23.022Z,41.26
2022-09-23T14:19:51.341Z,41.36
2022-09-23T14:22:29.881Z,42.30
2022-09-23T14:24:58.525Z,42.65
2022-09-23T14:27:32.144Z,41.96
2022-09-23T14:30:02.225Z,42.00
2022-09-23T14:32:30.287Z,42.05
2022-09-23T14:34:59.880Z,43.04
2022-09-23T14:38:07.270Z,43.24
2022-09-23T14:40:36.915Z,43.14
2022-09-23T14:43:30.122Z,42.75
2022-09-23T14:45:58.987Z,43.39
2022-09-23T14:48:33.816Z,43.32
2022-09-23T14:51:13.261Z,42.97
2022-09-23T14:53:49.048Z,42.97
2022-09-23T14:56:22.797Z,42.91
2022-09-23T14:59:00.100Z,43.92
2022-09-23T15:01:36.613Z,43.72
2022-09-23T15:04:21.705Z,43.44
2022-09-23T15:07:00.628Z,44.01
2022-09-23T15:09:39.357Z,44.26
2022-09-23T15:12:16.002Z,44.64
2022-09-23T15:14:54.099Z,45.20
2022-09-23T15:17:23.995Z,45.15
2022-09-23T15:19:58.269Z,46.00
2022-09-23T15:22:25.810Z,45.98
2022-09-23T15:24:55.048Z,46.29
2022-09-23T15:27:31.701Z,46.81
2022-09-23T15:30:17.194Z,46.32
2022-09-23T15:32:46.689Z,46.85
2022-09-23T15:35:17.467Z,47.23
2022-09-23T15:37:46.934Z,48.06
2022-09-23T15:40:32.880Z,48.94
2022-09-23T15:43:11.233Z,48.33
2022-09-23T15:45:44.732Z,48.84
2022-09-23T15:48:16.742Z,49.27
2022-09-23T15:50:47.453Z,49.79
2022-09-23T15:53:23.362Z,50.16
2022-09-23T15:55:51.747Z,50.34
2022-09-23T15:58:20.587Z,50.80
2022-09-23T16:00:56.861Z,50.87
2022-09-23T16:03:28.595Z,51.25
2022-09-23T16:06:00.684Z,51.19
2022-09-23T16:08:29.442Z,51.61
2022-09-23T16:10:56.787Z,51.47
2022-09-23T16:13:23.775Z,51.62
2022-09-23T16:15:50.733Z,52.18
2022-09-23T16:18:18.054Z,52.61
2022-09-23T16:20:47.375Z,53.44
2022-09-23T16:23:35.895Z,54.18
2022-09-23T16:26:15.721Z,54.79
2022-09-23T16:28:46.575Z,54.87
2022-09-23T16:31:17.658Z,55.40
2022-09-23T16:33:46.566Z,56.14
2022-09-23T16:36:27.068Z,56.75
2022-09-23T16:38:55.703Z,56.51
2022-09-23T16:41:24.773Z,56.25
2022-09-23T16:43:53.015Z,56.60
2022-09-23T16:46:21.035Z,56.94
2022-09-23T16:48:52.607Z,56.72
2022-09-23T16:51:27.117Z,57.79
2022-09-23T16:53:56.077Z,57.86
2022-09-23T16:56:28.841Z,57.88
2022-09-23T16:58:56.539Z,58.43
2022-09-23T17:01:45.354Z,59.29
2022-09-23T17:04:13.612Z,59.22
2022-09-23T17:06:45.036Z,59.81
2022-09-23T17:09:12.352Z,60.75
2022-09-23T17:11:39.769Z,61.33
2022-09-23T17:14:06.670Z,61.41
2022-09-23T17:16:34.822Z,62.37
2022-09-23T17:19:08.228Z,62.40
2022-09-23T17:21:35.687Z,62.52
2022-09-23T17:24:03.292Z,61.90
2022-09-23T17:26:30.605Z,61.79
2022-09-23T17:28:59.743Z,61.59
2022-09-23T17:31:26.871Z,61.50
2022-09-23T17:33:54.238Z,61.77
2022-09-23T17:36:21.647Z,61.66
2022-09-23T17:38:53.721Z,61.67
2022-09-23T17:41:21.486Z,61.68
2022-09-23T17:43:55.024Z,62.02
2022-09-23T17:46:22.188Z,61.96
2022-09-23T17:48:49.131Z,62.20
2022-09-23T17:51:21.654Z,62.12
2022-09-23T17:53:49.752Z,61.98
2022-09-23T17:56:29.855Z,62.49
2022-09-23T17:59:04.518Z,62.67
2022-09-23T18:01:31.950Z,63.28
2022-09-23T18:04:02.129Z,62.73
2022-09-23T18:06:31.847Z,62.74
2022-09-23T18:09:06.737Z,63.04
2022-09-23T18:11:37.574Z,63.57
2022-09-23T18:14:15.511Z,64.46
2022-09-23T18:16:45.743Z,65.81
2022-09-23T18:19:16.014Z,65.04
2022-09-23T18:21:50.500Z,64.24
2022-09-23T18:24:34.781Z,63.97
2022-09-23T18:27:02.245Z,64.09
2022-09-23T18:29:29.682Z,63.93
2022-09-23T18:31:56.858Z,63.69
2022-09-23T18:34:24.321Z,64.05
2022-09-23T18:36:51.570Z,64.04
2022-09-23T18:39:18.545Z,64.36
2022-09-23T18:41:45.533Z,64.53
2022-09-23T18:44:12.587Z,64.58
2022-09-23T18:46:39.729Z,65.11
2022-09-23T18:49:25.392Z,64.68
2022-09-23T18:51:55.652Z,65.21
2022-09-23T18:54:25.462Z,65.02
2022-09-23T18:56:55.568Z,64.62
2022-09-23T18:59:25.426Z,64.95
2022-09-23T19:01:55.539Z,64.75
2022-09-23T19:04:25.512Z,64.73
2022-09-23T19:06:53.979Z,64.39
2022-09-23T19:09:21.035Z,64.91
2022-09-23T19:11:52.398Z,64.99
2022-09-23T19:14:20.051Z,65.41
2022-09-23T19:16:49.030Z,65.10
2022-09-23T19:19:16.102Z,65.47
2022-09-23T19:21:43.517Z,65.25
2022-09-23T19:24:16.190Z,65.27
2022-09-23T19:26:44.307Z,65.42
2022-09-23T19:29:19.586Z,66.01
2022-09-23T19:31:46.781Z,66.57
2022-09-23T19:34:20.009Z,66.18
2022-09-23T19:36:47.742Z,66.01
2022-09-23T19:39:30.619Z,65.42
2022-09-23T19:41:59.001Z,66.08
2022-09-23T19:44:26.971Z,66.04
2022-09-23T19:46:56.774Z,65.92
2022-09-23T19:49:25.080Z,66.05
2022-09-23T19:51:56.222Z,66.20
2022-09-23T19:54:27.488Z,67.10
2022-09-23T19:56:55.152Z,66.63
2022-09-23T19:59:22.144Z,67.28
2022-09-23T20:01:49.562Z,67.80
2022-09-23T20:04:17.093Z,67.54
2022-09-23T20:06:44.068Z,68.42
2022-09-23T20:09:11.509Z,69.74
2022-09-23T20:11:38.864Z,69.68
2022-09-23T20:14:06.550Z,68.95
2022-09-23T20:16:36.968Z,69.25
2022-09-23T20:19:05.676Z,69.73
2022-09-23T20:21:33.744Z,70.56
2022-09-23T20:24:01.436Z,70.00
2022-09-23T20:26:47.424Z,70.28
2022-09-23T20:29:14.543Z,70.67
2022-09-23T20:31:41.737Z,70.75
2022-09-23T20:34:10.610Z,71.34
2022-09-23T20:36:40.018Z,71.76
2022-09-23T20:39:07.499Z,72.64
2022-09-23T20:41:38.012Z,72.63
2022-09-23T20:44:14.080Z,72.53
2022-09-23T20:46:48.098Z,73.07
2022-09-23T20:49:17.361Z,73.83
2022-09-23T20:51:44.605Z,73.90
2022-09-23T20:54:12.310Z,74.22
2022-09-23T20:56:39.443Z,74.83
2022-09-23T20:59:06.718Z,75.49
2022-09-23T21:01:35.300Z,75.75
2022-09-23T21:04:08.010Z,77.01
2022-09-23T21:06:37.474Z,77.26
2022-09-23T21:09:05.623Z,77.23
2022-09-23T21:11:32.634Z,78.25
2022-09-23T21:14:01.126Z,78.87
2022-09-23T21:16:28.782Z,78.32
2022-09-23T21:18:56.053Z,78.87
2022-09-23T21:21:23.045Z,79.26
2022-09-23T21:23:50.867Z,78.95
2022-09-23T21:26:23.877Z,78.80
2022-09-23T21:28:53.719Z,79.59
2022-09-23T21:31:25.783Z,79.97
2022-09-23T21:34:01.580Z,80.50
2022-09-23T21:36:34.659Z,81.70
2022-09-23T21:39:04.579Z,82.09
2022-09-23T21:41:32.501Z,82.13
2022-09-23T21:44:00.382Z,81.56
2022-09-23T21:46:28.327Z,81.70
2022-09-23T21:48:58.225Z,81.68
2022-09-23T21:51:36.582Z,81.87
2022-09-23T21:54:03.850Z,81.80
2022-09-23T21:56:37.850Z,82.07
2022-09-23T21:59:05.819Z,83.02
2022-09-23T22:01:38.275Z,82.42
2022-09-23T22:04:18.626Z,82.52
2022-09-23T22:06:46.786Z,81.70
2022-09-23T22:09:20.418Z,81.75
2022-09-23T22:12:09.675Z,83.15
2022-09-23T22:14:36.912Z,82.59
2022-09-23T22:17:05.847Z,82.07
2022-09-23T22:19:40.336Z,82.35
2022-09-23T22:22:13.330Z,83.26
2022-09-23T22:24:45.109Z,82.77
2022-09-23T22:27:16.000Z,83.78
2022-09-23T22:30:02.469Z,83.60
2022-09-23T22:32:41.911Z,84.18
2022-09-23T22:35:17.690Z,84.61
2022-09-23T22:37:45.326Z,84.66
2022-09-23T22:40:14.863Z,85.51
2022-09-23T22:42:43.121Z,85.05
2022-09-23T22:45:11.861Z,84.50
2022-09-23T22:47:41.019Z,85.12
2022-09-23T22:50:09.480Z,84.78
2022-09-23T22:52:37.915Z,84.40
2022-09-23T22:55:08.090Z,83.81
2022-09-23T22:57:35.333Z,83.97
2022-09-23T23:00:05.568Z,85.14
2022-09-23T23:02:33.100Z,85.11
2022-09-23T23:05:00.497Z,85.20
2022-09-23T23:07:27.555Z,85.12
2022-09-23T23:09:54.546Z,85.36
2022-09-23T23:12:21.736Z,85.96
2022-09-23T23:14:49.543Z,85.56
2022-09-23T23:17:17.324Z,85.51
2022-09-23T23:19:44.559Z,86.07
2022-09-23T23:22:11.604Z,85.78
2022-09-23T23:24:38.624Z,85.15
2022-09-23T23:27:05.583Z,86.01
2022-09-23T23:29:32.545Z,85.51
2022-09-23T23:31:59.621Z,85.75
2022-09-23T23:34:26.592Z,85.29
2022-09-23T23:36:55.098Z,87.02
2022-09-23T23:39:24.163Z,87.06
2022-09-23T23:41:56.765Z,86.95
2022-09-23T23:44:25.458Z,86.58
2022-09-23T23:46:55.664Z,86.96
2022-09-23T23:49:22.924Z,87.17
2022-09-23T23:51:50.042Z,86.65
2022-09-23T23:54:17.053Z,85.83
2022-09-23T23:56:44.088Z,87.41
2022-09-23T23:59:11.432Z,87.94
